createdAt,value
2022-10-03T00:02:21.199Z,13.73
2022-10-03T00:05:11.824Z,13.76
2022-10-03T00:07:54.818Z,13.77
2022-10-03T00:10:31.083Z,13.74
2022-10-03T00:13:09.724Z,13.66
2022-10-03T00:15:47.225Z,13.56
2022-10-03T00:18:27.284Z,13.54
2022-10-03T00:21:09.270Z,13.49
2022-10-03T00:23:46.630Z,13.49
2022-10-03T00:26:30.707Z,13.57
2022-10-03T00:29:20.282Z,13.57
2022-10-03T00:32:01.410Z,13.62
2022-10-03T00:34:40.808Z,13.57
2022-10-03T00:37:25.105Z,13.55
2022-10-03T00:40:09.418Z,13.49
2022-10-03T00:43:20.561Z,13.36
2022-10-03T00:46:36.308Z,13.40
2022-10-03T00:49:28.630Z,13.31
2022-10-03T00:57:15.630Z,13.23
2022-10-03T00:59:56.885Z,13.15
2022-10-03T01:02:43.272Z,13.11
2022-10-03T01:05:20.398Z,13.37
2022-10-03T01:08:03.835Z,13.26
2022-10-03T01:10:39.396Z,13.18
2022-10-03T01:18:31.456Z,13.28
2022-10-03T01:21:07.414Z,13.05
2022-10-03T01:24:04.512Z,13.33
2022-10-03T01:26:49.240Z,13.32
2022-10-03T01:29:42.217Z,13.35
2022-10-03T01:32:15.191Z,13.30
2022-10-03T01:38:45.203Z,13.07
2022-10-03T01:41:22.152Z,12.98
2022-10-03T01:43:54.924Z,12.86
2022-10-03T01:46:22.935Z,12.90
2022-10-03T01:48:58.792Z,12.65
2022-10-03T01:51:29.474Z,12.61
2022-10-03T02:00:56.699Z,12.75
2022-10-03T02:03:27.317Z,12.87
2022-10-03T02:06:01.179Z,12.91
2022-10-03T02:08:43.764Z,12.92
2022-10-03T02:11:12.020Z,12.89
2022-10-03T02:13:47.483Z,12.82
2022-10-03T02:16:30.242Z,12.63
2022-10-03T02:24:24.043Z,13.04
2022-10-03T02:27:20.966Z,13.10
2022-10-03T02:30:02.992Z,13.05
2022-10-03T02:33:04.080Z,12.92
2022-10-03T02:35:55.591Z,13.06
2022-10-03T02:38:42.971Z,13.06
2022-10-03T02:49:27.168Z,12.73
2022-10-03T02:52:26.126Z,12.51
2022-10-03T02:55:23.534Z,12.70
2022-10-03T02:58:15.620Z,12.60
2022-10-03T03:01:06.856Z,12.76
2022-10-03T03:04:05.994Z,12.84
2022-10-03T03:12:12.277Z,12.64
2022-10-03T03:15:07.714Z,12.58
2022-10-03T03:17:42.068Z,12.59
2022-10-03T03:20:25.470Z,12.53
2022-10-03T03:23:10.037Z,12.58
2022-10-03T03:25:51.363Z,12.78
2022-10-03T03:32:19.274Z,12.75
2022-10-03T03:34:54.031Z,12.72
2022-10-03T03:37:29.547Z,12.63
2022-10-03T03:40:08.913Z,12.74
2022-10-03T03:42:56.629Z,12.73
2022-10-03T03:45:41.148Z,12.73
2022-10-03T03:48:24.402Z,12.68
2022-10-03T03:51:12.185Z,12.64
2022-10-03T03:53:59.493Z,12.55
2022-10-03T03:56:56.075Z,12.32
2022-10-03T03:59:40.869Z,12.31
2022-10-03T04:02:22.006Z,12.31
2022-10-03T04:05:07.910Z,12.35
2022-10-03T04:07:50.378Z,12.43
2022-10-03T04:10:29.732Z,12.40
2022-10-03T04:13:18.937Z,12.52
2022-10-03T04:16:08.618Z,12.49
2022-10-03T04:19:00.961Z,12.47
2022-10-03T04:22:01.047Z,12.47
2022-10-03T04:25:00.964Z,12.42
2022-10-03T04:28:00.133Z,12.39
2022-10-03T04:30:38.210Z,12.36
2022-10-03T04:33:27.859Z,12.32
2022-10-03T04:36:39.950Z,12.14
2022-10-03T04:39:17.382Z,12.10
2022-10-03T04:41:53.076Z,12.07
2022-10-03T04:44:34.765Z,12.22
2022-10-03T04:47:10.911Z,12.23
2022-10-03T04:49:44.494Z,12.33
2022-10-03T04:52:20.032Z,12.31
2022-10-03T04:54:58.167Z,12.40
2022-10-03T04:57:36.535Z,12.50
2022-10-03T05:00:15.495Z,12.44
2022-10-03T05:02:50.151Z,12.36
2022-10-03T05:05:42.930Z,12.33
2022-10-03T05:08:22.320Z,12.24
2022-10-03T05:10:58.915Z,12.15
2022-10-03T05:13:42.345Z,12.16
2022-10-03T05:16:21.957Z,12.14
2022-10-03T05:18:56.523Z,12.22
2022-10-03T05:21:35.031Z,12.16
2022-10-03T05:24:15.533Z,12.24
2022-10-03T05:26:50.038Z,12.19
2022-10-03T05:29:28.239Z,12.29
2022-10-03T05:32:11.489Z,12.17
2022-10-03T05:35:04.761Z,12.20
2022-10-03T05:37:50.966Z,12.33
2022-10-03T05:40:24.268Z,12.50
2022-10-03T05:43:05.962Z,12.44
2022-10-03T05:45:49.002Z,12.30
2022-10-03T05:48:32.487Z,12.31
2022-10-03T05:57:39.245Z,12.50
2022-10-03T06:00:15.582Z,12.29
2022-10-03T06:03:18.265Z,12.27
2022-10-03T06:05:58.250Z,12.29
2022-10-03T06:08:52.491Z,12.19
2022-10-03T06:11:48.940Z,12.19
2022-10-03T06:14:34.711Z,12.45
2022-10-03T06:22:47.578Z,12.48
2022-10-03T06:25:52.791Z,12.41
2022-10-03T06:28:56.030Z,12.22
2022-10-03T06:31:57.403Z,12.15
2022-10-03T06:34:44.354Z,12.20
2022-10-03T06:37:41.803Z,12.01
2022-10-03T06:45:56.611Z,12.13
2022-10-03T06:48:58.142Z,12.40
2022-10-03T06:51:52.906Z,12.56
2022-10-03T06:54:54.616Z,12.61
2022-10-03T06:57:39.208Z,12.67
2022-10-03T07:00:14.747Z,12.61
2022-10-03T07:08:22.336Z,12.64
2022-10-03T07:11:15.474Z,12.77
2022-10-03T07:14:00.195Z,12.72
2022-10-03T07:16:53.023Z,12.61
2022-10-03T07:19:38.389Z,12.61
2022-10-03T07:22:41.232Z,12.53
2022-10-03T07:29:13.188Z,12.76
2022-10-03T07:32:00.894Z,12.80
2022-10-03T07:35:02.227Z,12.79
2022-10-03T07:38:04.258Z,12.77
2022-10-03T07:41:04.754Z,12.74
2022-10-03T07:44:06.270Z,12.80
2022-10-03T07:52:13.257Z,12.67
2022-10-03T07:54:59.279Z,12.55
2022-10-03T07:58:03.967Z,12.38
2022-10-03T08:00:46.979Z,12.37
2022-10-03T08:03:56.884Z,12.42
2022-10-03T08:06:35.369Z,12.50
2022-10-03T08:16:01.089Z,12.63
2022-10-03T08:19:01.912Z,12.58
2022-10-03T08:21:38.597Z,12.54
2022-10-03T08:24:36.528Z,12.67
2022-10-03T08:27:34.679Z,12.54
2022-10-03T08:30:31.698Z,12.51
2022-10-03T08:33:42.679Z,12.55
2022-10-03T08:36:42.696Z,12.58
2022-10-03T08:39:37.211Z,12.61
2022-10-03T08:42:33.250Z,12.95
2022-10-03T08:45:26.825Z,12.90
2022-10-03T08:48:38.094Z,13.04
2022-10-03T08:51:38.901Z,13.11
2022-10-03T08:54:25.047Z,12.90
2022-10-03T08:57:24.833Z,12.75
2022-10-03T09:00:07.638Z,12.95
2022-10-03T09:03:39.306Z,12.87
2022-10-03T09:07:18.920Z,12.95
2022-10-03T09:10:14.050Z,12.97
2022-10-03T09:13:19.743Z,13.12
2022-10-03T09:16:18.538Z,13.07
2022-10-03T09:19:04.854Z,13.09
2022-10-03T09:22:04.937Z,13.05
2022-10-03T09:25:06.303Z,13.12
2022-10-03T09:28:02.329Z,13.13
2022-10-03T09:30:48.965Z,13.14
2022-10-03T09:36:24.962Z,13.12
2022-10-03T09:39:17.777Z,13.04
2022-10-03T09:42:25.070Z,13.22
2022-10-03T09:45:23.580Z,13.25
2022-10-03T09:48:28.032Z,13.23
2022-10-03T09:51:26.248Z,13.13
2022-10-03T09:57:08.733Z,13.41
2022-10-03T10:00:02.775Z,13.59
2022-10-03T10:03:19.698Z,13.77
2022-10-03T10:06:15.272Z,13.65
2022-10-03T10:09:27.532Z,13.56
2022-10-03T10:12:18.523Z,13.58
2022-10-03T10:19:05.093Z,13.44
2022-10-03T10:21:59.009Z,13.46
2022-10-03T10:24:58.138Z,13.43
2022-10-03T10:28:02.777Z,13.34
2022-10-03T10:31:04.749Z,13.56
2022-10-03T10:37:18.519Z,13.76
2022-10-03T10:40:12.008Z,13.91
2022-10-03T10:43:20.647Z,13.91
2022-10-03T10:46:16.751Z,13.83
2022-10-03T10:49:35.134Z,13.70
2022-10-03T10:52:46.141Z,13.80
2022-10-03T11:01:01.234Z,13.85
2022-10-03T11:04:19.246Z,14.03
2022-10-03T11:07:19.951Z,14.37
2022-10-03T11:10:31.082Z,14.31
2022-10-03T11:13:36.109Z,14.22
2022-10-03T11:16:42.877Z,14.51
2022-10-03T11:19:35.287Z,14.25
2022-10-03T11:22:38.703Z,14.28
2022-10-03T11:25:40.402Z,14.40
2022-10-03T11:28:59.865Z,14.23
2022-10-03T11:31:50.215Z,14.19
2022-10-03T11:34:57.626Z,14.26
2022-10-03T11:37:37.164Z,14.29
2022-10-03T11:40:23.438Z,14.43
2022-10-03T11:43:02.118Z,14.48
2022-10-03T11:45:33.959Z,14.69
2022-10-03T11:48:21.294Z,14.55
2022-10-03T11:50:54.965Z,14.52
2022-10-03T11:53:32.028Z,14.52
2022-10-03T11:56:19.998Z,14.51
2022-10-03T11:59:01.886Z,14.57
2022-10-03T12:01:40.641Z,14.47
2022-10-03T12:04:18.147Z,14.76
2022-10-03T12:07:17.763Z,14.95
2022-10-03T12:10:01.341Z,14.73
2022-10-03T12:12:43.767Z,14.71
2022-10-03T12:15:31.205Z,14.84
2022-10-03T12:18:08.175Z,15.00
2022-10-03T12:23:25.081Z,14.95
2022-10-03T12:25:54.448Z,15.08
2022-10-03T12:28:25.731Z,15.20
2022-10-03T12:31:00.204Z,15.14
2022-10-03T12:33:43.155Z,15.18
2022-10-03T12:36:16.183Z,15.03
2022-10-03T12:39:10.373Z,14.99
2022-10-03T12:41:57.179Z,14.88
2022-10-03T12:44:37.809Z,14.92
2022-10-03T12:47:37.626Z,14.82
2022-10-03T12:50:27.798Z,14.89
2022-10-03T12:53:21.176Z,14.92
2022-10-03T12:56:04.751Z,14.90
2022-10-03T12:58:44.350Z,15.15
2022-10-03T13:01:24.423Z,15.24
2022-10-03T13:04:05.986Z,15.29
2022-10-03T13:07:02.920Z,15.02
2022-10-03T13:09:51.249Z,15.00
2022-10-03T13:12:29.359Z,15.29
2022-10-03T13:15:45.468Z,15.12
2022-10-03T13:18:29.183Z,15.01
2022-10-03T13:21:21.379Z,15.00
2022-10-03T13:23:59.919Z,15.16
2022-10-03T13:26:40.092Z,15.52
2022-10-03T13:29:27.059Z,15.46
2022-10-03T13:32:13.523Z,15.28
2022-10-03T13:35:23.366Z,15.17
2022-10-03T13:38:10.856Z,15.46
2022-10-03T13:40:47.198Z,15.64
2022-10-03T13:43:21.692Z,15.48
2022-10-03T13:45:57.136Z,15.34
2022-10-03T13:48:31.805Z,15.37
2022-10-03T13:51:05.470Z,15.51
2022-10-03T13:53:55.459Z,15.82
2022-10-03T13:56:40.278Z,16.06
2022-10-03T13:59:28.824Z,16.26
2022-10-03T14:02:08.927Z,16.42
2022-10-03T14:05:00.890Z,16.69
2022-10-03T14:07:45.199Z,16.88
2022-10-03T14:10:33.592Z,17.03
2022-10-03T14:13:17.434Z,17.38
2022-10-03T14:15:51.313Z,17.45
2022-10-03T14:18:33.281Z,17.49
2022-10-03T14:21:28.190Z,17.53
2022-10-03T14:24:14.166Z,17.57
2022-10-03T14:26:50.211Z,17.64
2022-10-03T14:29:27.823Z,17.65
2022-10-03T14:32:02.290Z,17.70
2022-10-03T14:34:47.636Z,17.71
2022-10-03T14:37:27.097Z,17.74
2022-10-03T14:40:13.620Z,17.70
2022-10-03T14:43:03.060Z,17.76
2022-10-03T14:45:35.460Z,17.70
2022-10-03T14:48:12.111Z,17.66
2022-10-03T14:50:44.039Z,17.49
2022-10-03T14:53:20.385Z,17.46
2022-10-03T14:56:00.626Z,17.54
2022-10-03T14:58:32.673Z,17.47
2022-10-03T15:01:10.738Z,17.40
2022-10-03T15:03:40.622Z,17.39
2022-10-03T15:06:50.263Z,17.22
2022-10-03T15:09:21.648Z,17.20
2022-10-03T15:11:54.189Z,17.07
2022-10-03T15:14:24.630Z,16.99
2022-10-03T15:16:55.983Z,16.97
2022-10-03T15:19:31.896Z,16.96
2022-10-03T15:22:07.629Z,16.94
2022-10-03T15:24:39.111Z,17.03
2022-10-03T15:27:13.833Z,16.96
2022-10-03T15:29:44.954Z,16.98
2022-10-03T15:34:51.374Z,16.90
2022-10-03T15:37:30.250Z,16.85
2022-10-03T15:40:03.257Z,16.73
2022-10-03T15:42:32.740Z,16.66
2022-10-03T15:45:06.433Z,16.58
2022-10-03T15:47:36.754Z,16.45
2022-10-03T15:50:13.204Z,16.43
2022-10-03T15:52:46.234Z,16.39
2022-10-03T15:55:19.731Z,16.38
2022-10-03T15:57:50.552Z,16.27
2022-10-03T16:00:24.526Z,16.19
2022-10-03T16:03:00.206Z,16.10
2022-10-03T16:05:28.672Z,16.03
2022-10-03T16:08:05.191Z,15.96
2022-10-03T16:10:38.799Z,15.95
2022-10-03T16:13:20.164Z,15.84
2022-10-03T16:16:08.857Z,15.80
2022-10-03T16:18:51.957Z,15.72
2022-10-03T16:21:40.429Z,15.77
2022-10-03T16:24:22.101Z,15.75
2022-10-03T16:26:55.857Z,15.59
2022-10-03T16:29:32.354Z,15.60
2022-10-03T16:32:04.940Z,15.48
2022-10-03T16:34:35.300Z,15.38
2022-10-03T16:37:06.279Z,15.30
2022-10-03T16:39:38.567Z,15.21
2022-10-03T16:42:14.296Z,15.17
2022-10-03T16:44:51.447Z,15.15
2022-10-03T16:47:29.481Z,15.10
2022-10-03T16:50:16.810Z,15.07
2022-10-03T16:52:47.975Z,15.12
2022-10-03T16:55:22.519Z,15.05
2022-10-03T16:57:53.955Z,15.02
2022-10-03T17:00:24.565Z,15.00
2022-10-03T17:02:53.692Z,14.92
2022-10-03T17:05:22.281Z,14.89
2022-10-03T17:07:54.787Z,14.86
2022-10-03T17:10:35.247Z,14.76
2022-10-03T17:13:10.787Z,14.76
2022-10-03T17:15:49.267Z,14.75
2022-10-03T17:18:26.133Z,14.77
2022-10-03T17:20:57.700Z,14.77
2022-10-03T17:23:31.160Z,14.92
2022-10-03T17:26:05.991Z,14.87
2022-10-03T17:28:41.449Z,14.77
2022-10-03T17:31:29.916Z,14.68
2022-10-03T17:34:06.270Z,14.60
2022-10-03T17:37:04.975Z,14.59
2022-10-03T17:39:40.993Z,14.54
2022-10-03T17:42:24.498Z,14.54
2022-10-03T17:45:00.319Z,14.46
2022-10-03T17:47:41.117Z,14.39
2022-10-03T17:50:15.640Z,14.36
2022-10-03T17:52:47.179Z,14.30
2022-10-03T17:55:20.280Z,14.31
2022-10-03T17:57:52.638Z,14.27
2022-10-03T18:00:22.282Z,14.28
2022-10-03T18:02:59.159Z,14.34
2022-10-03T18:05:30.448Z,14.28
2022-10-03T18:08:05.816Z,14.17
2022-10-03T18:10:38.794Z,14.17
2022-10-03T18:13:18.052Z,14.14
2022-10-03T18:16:18.342Z,14.10
2022-10-03T18:19:10.785Z,14.09
2022-10-03T18:22:03.313Z,14.02
2022-10-03T18:24:52.747Z,14.00
2022-10-03T18:27:44.514Z,13.93
2022-10-03T18:30:20.172Z,13.91
2022-10-03T18:32:50.254Z,13.91
2022-10-03T18:35:22.985Z,13.93
2022-10-03T18:37:59.555Z,14.01
2022-10-03T18:40:30.510Z,14.05
2022-10-03T18:43:00.433Z,14.10
2022-10-03T18:45:32.395Z,14.07
2022-10-03T18:48:08.285Z,14.07
2022-10-03T18:50:51.254Z,14.07
2022-10-03T18:53:28.135Z,14.11
2022-10-03T18:56:00.511Z,14.13
2022-10-03T18:58:32.066Z,14.02
2022-10-03T19:01:06.244Z,13.96
2022-10-03T19:03:40.286Z,13.96
2022-10-03T19:06:19.622Z,13.99
2022-10-03T19:08:53.275Z,14.05
2022-10-03T19:11:26.078Z,14.03
2022-10-03T19:14:02.277Z,14.02
2022-10-03T19:16:45.239Z,14.03
2022-10-03T19:19:26.270Z,14.02
2022-10-03T19:21:54.610Z,13.88
2022-10-03T19:24:46.506Z,13.89
2022-10-03T19:27:18.826Z,13.98
2022-10-03T19:29:50.407Z,14.00
2022-10-03T19:32:26.756Z,13.99
2022-10-03T19:34:58.197Z,13.94
2022-10-03T19:37:44.539Z,13.95
2022-10-03T19:40:16.449Z,13.88
2022-10-03T19:42:48.378Z,13.88
2022-10-03T19:45:19.710Z,13.79
2022-10-03T19:47:54.339Z,13.71
2022-10-03T19:50:28.232Z,13.71
2022-10-03T19:52:56.896Z,13.57
2022-10-03T19:55:30.972Z,13.54
2022-10-03T19:58:02.054Z,13.60
2022-10-03T20:00:32.944Z,13.55
2022-10-03T20:03:18.159Z,13.55
2022-10-03T20:05:55.801Z,13.48
2022-10-03T20:08:27.383Z,13.41
2022-10-03T20:11:15.426Z,13.33
2022-10-03T20:13:46.216Z,13.35
2022-10-03T20:16:18.322Z,13.40
2022-10-03T20:18:50.191Z,13.31
2022-10-03T20:21:21.800Z,13.24
2022-10-03T20:23:50.717Z,13.19
2022-10-03T20:26:30.446Z,13.12
2022-10-03T20:29:28.567Z,13.09
2022-10-03T20:32:15.416Z,13.02
2022-10-03T20:34:50.822Z,12.99
2022-10-03T20:37:36.666Z,12.97
2022-10-03T20:40:17.467Z,12.99
2022-10-03T20:42:49.308Z,12.96
2022-10-03T20:45:23.546Z,12.92
2022-10-03T20:48:00.327Z,12.88
2022-10-03T20:50:33.547Z,12.87
2022-10-03T20:53:03.235Z,12.84
2022-10-03T20:55:34.188Z,12.82
2022-10-03T20:58:14.339Z,12.79
2022-10-03T21:00:47.474Z,12.78
2022-10-03T21:03:27.454Z,12.76
2022-10-03T21:05:59.203Z,12.79
2022-10-03T21:08:30.107Z,12.73
2022-10-03T21:11:02.507Z,12.69
2022-10-03T21:13:34.784Z,12.68
2022-10-03T21:16:05.933Z,12.76
2022-10-03T21:18:38.314Z,12.75
2022-10-03T21:21:13.835Z,12.77
2022-10-03T21:23:48.339Z,12.76
2022-10-03T21:26:22.280Z,12.73
2022-10-03T21:28:49.988Z,12.68
2022-10-03T21:31:31.965Z,12.63
2022-10-03T21:34:17.334Z,12.55
2022-10-03T21:36:52.872Z,12.49
2022-10-03T21:39:33.878Z,12.55
2022-10-03T21:42:13.670Z,12.71
2022-10-03T21:44:59.527Z,12.75
2022-10-03T21:47:45.088Z,12.96
2022-10-03T21:50:20.588Z,12.87
2022-10-03T21:53:11.867Z,12.92
2022-10-03T21:56:00.086Z,12.81
2022-10-03T21:58:43.664Z,12.91
2022-10-03T22:01:26.857Z,12.91
2022-10-03T22:04:03.324Z,12.89
2022-10-03T22:06:38.058Z,12.92
2022-10-03T22:09:13.930Z,13.04
2022-10-03T22:11:49.953Z,13.03
2022-10-03T22:14:29.585Z,13.01
2022-10-03T22:17:06.927Z,12.91
2022-10-03T22:19:39.963Z,12.87
2022-10-03T22:22:29.761Z,12.84
2022-10-03T22:25:16.428Z,12.85
2022-10-03T22:27:52.503Z,12.82
2022-10-03T22:30:22.227Z,12.85
2022-10-03T22:33:08.184Z,12.72
2022-10-03T22:35:50.312Z,12.54
2022-10-03T22:38:21.424Z,12.55
2022-10-03T22:40:51.639Z,12.56
2022-10-03T22:43:20.684Z,12.55
2022-10-03T22:48:24.364Z,12.48
2022-10-03T22:50:55.287Z,12.44
2022-10-03T22:56:45.150Z,12.21
2022-10-03T22:59:16.271Z,12.10
2022-10-03T23:01:46.928Z,12.09
2022-10-03T23:04:23.953Z,12.05
2022-10-03T23:07:12.005Z,12.02
2022-10-03T23:09:50.100Z,11.95
2022-10-03T23:23:01.750Z,11.81
2022-10-03T23:25:33.831Z,11.78
2022-10-03T23:28:17.455Z,11.77
2022-10-03T23:30:50.496Z,11.73
2022-10-03T23:33:19.184Z,11.70
2022-10-03T23:35:47.367Z,11.74
2022-10-03T23:43:29.148Z,11.63
2022-10-03T23:45:59.537Z,11.68
2022-10-03T23:48:28.575Z,11.84
2022-10-03T23:50:58.639Z,11.90
2022-10-03T23:53:30.338Z,11.82
2022-10-03T23:55:58.874Z,11.79
2022-10-03T23:58:30.335Z,11.74
